Thor — WDC2707 — position and weather

sailwx.info

Track history (hours):
 
Tides and Currents Weather Stations Pressure Air Temp Water Temp Dewpoint Dewpoint Depression Visibility Wind Speed Wind Dir Waves Ship Positions

Thor

Owner: Kirby Inland Marine, LP, Houston, TX. More information available from US FCC via Universal Licensing System and Coast Guard Vessel Documentation Center.

Last reported at 2017-Nov-05 20:28 UTC. Time now 2017-Nov-21 23:08 UTC.
Position N 29°56' W 093°04'.
Warning: this ship's position is 16 days out of date.

Length 206 m; draft 3 m.

Type: . MMSI: 366996640.

Date/timePositionNaut miles runAvg speedWind from/ knotsBaromVisibWave heightAir tempDewpointWater temp
2017-Nov-05 20:28N 29°56' W 093°04'2 4.9
2017-Nov-05 20:00N 29°56' W 093°07'2 5.0
2017-Nov-05 19:30N 29°56' W 093°09'3 5.0
2017-Nov-05 19:00N 29°58' W 093°11'2 4.5
2017-Nov-05 18:30N 29°60' W 093°13'2 4.3
2017-Nov-05 18:00N 30°02' W 093°14'2 3.5
2017-Nov-05 17:30N 30°03' W 093°16'2 4.6
2017-Nov-05 17:00N 30°05' W 093°17'2 3.8
2017-Nov-05 16:30N 30°06' W 093°18'0 0.1
2017-Nov-05 16:00N 30°06' W 093°18'0 0.0
2017-Nov-05 15:30N 30°06' W 093°18'0 0.0
2017-Nov-05 15:00N 30°06' W 093°18'0 0.0
2017-Nov-05 14:30N 30°06' W 093°18'0 0.2
2017-Nov-05 14:00N 30°06' W 093°18'3 5.4
2017-Nov-05 13:30N 30°04' W 093°21'3 5.4
2017-Nov-05 13:00N 30°04' W 093°24'3 6.5
2017-Nov-05 12:30N 30°04' W 093°27'2 3.5
2017-Nov-05 12:00N 30°04' W 093°29'0 0.1
2017-Nov-05 11:30N 30°04' W 093°29'2 3.9
2017-Nov-05 11:00N 30°04' W 093°32'2 4.2
2017-Nov-05 10:30N 30°04' W 093°34'3 5.0
2017-Nov-05 09:59N 30°03' W 093°37'5 5.3
2017-Nov-05 09:07N 30°03' W 093°42'69 4.2
2017-Nov-04 16:33N 29°31' W 094°53'0 6.5
2017-Nov-04 16:30N 29°31' W 094°53'3 6.1
2017-Nov-04 16:00N 29°34' W 094°55'3 5.7
2017-Nov-04 15:31N 29°36' W 094°57'3 5.2
2017-Nov-04 15:00N 29°38' W 094°58'3 5.7
2017-Nov-04 14:29N 29°41' W 094°59'4 5.5
2017-Nov-04 13:46N 29°44' W 095°02'3 0.3
2017-Nov-04 01:05N 29°45' W 095°06'0 0.8
2017-Nov-04 00:31N 29°46' W 095°06'0 6.8
2017-Nov-04 00:30N 29°45' W 095°06'0 0.0
2017-Nov-03 23:47N 29°45' W 095°06'0 0.0
2017-Nov-03 23:20N 29°45' W 095°06'0 0.4
2017-Nov-03 22:10N 29°46' W 095°05'0 0.0
2017-Nov-03 07:24N 29°46' W 095°06'1 2.0
2017-Nov-03 06:59N 29°46' W 095°07'1 1.7
2017-Nov-03 06:29N 29°45' W 095°06'1 1.5
2017-Nov-03 05:59N 29°45' W 095°06'0 0.0
2017-Nov-03 05:26N 29°45' W 095°06'2 3.6
2017-Nov-03 04:57N 29°44' W 095°08'3 5.6
2017-Nov-03 04:28N 29°45' W 095°11'3 5.4
2017-Nov-03 04:00N 29°44' W 095°13'0 0.9
2017-Nov-03 03:30N 29°44' W 095°14'0 0.1
2017-Nov-03 03:00N 29°44' W 095°14'3 4.9
2017-Nov-03 02:29N 29°45' W 095°11'2 3.4
2017-Nov-03 02:00N 29°44' W 095°09'3 1.3
2017-Nov-02 23:54N 29°46' W 095°07'  
2017-Oct-29 23:53N 29°46' W 095°05'1 0.6
2017-Oct-29 23:01N 29°46' W 095°05'0 4.7
2017-Oct-29 23:00N 29°46' W 095°05'2 4.9
2017-Oct-29 22:30N 29°44' W 095°03'0 0.1
2017-Oct-29 22:00N 29°44' W 095°03'0 0.0
2017-Oct-29 20:58N 29°44' W 095°03'0 0.0
2017-Oct-29 20:28N 29°44' W 095°03'0 0.0
2017-Oct-29 18:49N 29°44' W 095°03'0 0.0
2017-Oct-29 17:46N 29°44' W 095°03'0 0.0
2017-Oct-29 15:52N 29°44' W 095°03'0 0.0
2017-Oct-29 15:22N 29°44' W 095°03'0 0.0
2017-Oct-29 13:06N 29°44' W 095°03'0 0.0
2017-Oct-29 10:39N 29°44' W 095°03'0 0.0
2017-Oct-29 10:27N 29°44' W 095°03'0 0.0
2017-Oct-29 07:39N 29°44' W 095°03'0 0.0
2017-Oct-29 07:30N 29°44' W 095°03'0 0.0
2017-Oct-29 06:54N 29°44' W 095°03'0 0.0
2017-Oct-29 06:21N 29°44' W 095°03'0 0.0
2017-Oct-29 05:39N 29°44' W 095°03'0 0.0
2017-Oct-29 05:24N 29°44' W 095°03'0 0.0
2017-Oct-29 03:36N 29°44' W 095°03'3 0.1
2017-Oct-28 03:17N 29°46' W 095°06'0 0.0
2017-Oct-27 10:03N 29°46' W 095°05'1 7.4
2017-Oct-27 09:54N 29°45' W 095°06'  
Track history (hours):
 
Tides and Currents Weather Stations Pressure Air Temp Water Temp Dewpoint Dewpoint Depression Visibility Wind Speed Wind Dir Waves Ship Positions

Thor

Owner: Kirby Inland Marine, LP, Houston, TX. More information available from US FCC via Universal Licensing System and Coast Guard Vessel Documentation Center.

Last reported at 2017-Nov-05 20:28 UTC. Time now 2017-Nov-21 23:08 UTC.
Position N 29°56' W 093°04'.
Warning: this ship's position is 16 days out of date.

Length 206 m; draft 3 m.

Type: . MMSI: 366996640.

Date/timePositionNaut miles runAvg speedWind from/ knotsBaromVisibWave heightAir tempDewpointWater temp
2017-Nov-05 20:28N 29°56' W 093°04'2 4.9
2017-Nov-05 20:00N 29°56' W 093°07'2 5.0
2017-Nov-05 19:30N 29°56' W 093°09'3 5.0
2017-Nov-05 19:00N 29°58' W 093°11'2 4.5
2017-Nov-05 18:30N 29°60' W 093°13'2 4.3
2017-Nov-05 18:00N 30°02' W 093°14'2 3.5
2017-Nov-05 17:30N 30°03' W 093°16'2 4.6
2017-Nov-05 17:00N 30°05' W 093°17'2 3.8
2017-Nov-05 16:30N 30°06' W 093°18'0 0.1
2017-Nov-05 16:00N 30°06' W 093°18'0 0.0
2017-Nov-05 15:30N 30°06' W 093°18'0 0.0
2017-Nov-05 15:00N 30°06' W 093°18'0 0.0
2017-Nov-05 14:30N 30°06' W 093°18'0 0.2
2017-Nov-05 14:00N 30°06' W 093°18'3 5.4
2017-Nov-05 13:30N 30°04' W 093°21'3 5.4
2017-Nov-05 13:00N 30°04' W 093°24'3 6.5
2017-Nov-05 12:30N 30°04' W 093°27'2 3.5
2017-Nov-05 12:00N 30°04' W 093°29'0 0.1
2017-Nov-05 11:30N 30°04' W 093°29'2 3.9
2017-Nov-05 11:00N 30°04' W 093°32'2 4.2
2017-Nov-05 10:30N 30°04' W 093°34'3 5.0
2017-Nov-05 09:59N 30°03' W 093°37'5 5.3
2017-Nov-05 09:07N 30°03' W 093°42'69 4.2
2017-Nov-04 16:33N 29°31' W 094°53'0 6.5
2017-Nov-04 16:30N 29°31' W 094°53'3 6.1
2017-Nov-04 16:00N 29°34' W 094°55'3 5.7
2017-Nov-04 15:31N 29°36' W 094°57'3 5.2
2017-Nov-04 15:00N 29°38' W 094°58'3 5.7
2017-Nov-04 14:29N 29°41' W 094°59'4 5.5
2017-Nov-04 13:46N 29°44' W 095°02'3 0.3
2017-Nov-04 01:05N 29°45' W 095°06'0 0.8
2017-Nov-04 00:31N 29°46' W 095°06'0 6.8
2017-Nov-04 00:30N 29°45' W 095°06'0 0.0
2017-Nov-03 23:47N 29°45' W 095°06'0 0.0
2017-Nov-03 23:20N 29°45' W 095°06'0 0.4
2017-Nov-03 22:10N 29°46' W 095°05'0 0.0
2017-Nov-03 07:24N 29°46' W 095°06'1 2.0
2017-Nov-03 06:59N 29°46' W 095°07'1 1.7
2017-Nov-03 06:29N 29°45' W 095°06'1 1.5
2017-Nov-03 05:59N 29°45' W 095°06'0 0.0
2017-Nov-03 05:26N 29°45' W 095°06'2 3.6
2017-Nov-03 04:57N 29°44' W 095°08'3 5.6
2017-Nov-03 04:28N 29°45' W 095°11'3 5.4
2017-Nov-03 04:00N 29°44' W 095°13'0 0.9
2017-Nov-03 03:30N 29°44' W 095°14'0 0.1
2017-Nov-03 03:00N 29°44' W 095°14'3 4.9
2017-Nov-03 02:29N 29°45' W 095°11'2 3.4
2017-Nov-03 02:00N 29°44' W 095°09'3 1.3
2017-Nov-02 23:54N 29°46' W 095°07'  
2017-Oct-29 23:53N 29°46' W 095°05'1 0.6
2017-Oct-29 23:01N 29°46' W 095°05'0 4.7
2017-Oct-29 23:00N 29°46' W 095°05'2 4.9
2017-Oct-29 22:30N 29°44' W 095°03'0 0.1
2017-Oct-29 22:00N 29°44' W 095°03'0 0.0
2017-Oct-29 20:58N 29°44' W 095°03'0 0.0
2017-Oct-29 20:28N 29°44' W 095°03'0 0.0
2017-Oct-29 18:49N 29°44' W 095°03'0 0.0
2017-Oct-29 17:46N 29°44' W 095°03'0 0.0
2017-Oct-29 15:52N 29°44' W 095°03'0 0.0
2017-Oct-29 15:22N 29°44' W 095°03'0 0.0
2017-Oct-29 13:06N 29°44' W 095°03'0 0.0
2017-Oct-29 10:39N 29°44' W 095°03'0 0.0
2017-Oct-29 10:27N 29°44' W 095°03'0 0.0
2017-Oct-29 07:39N 29°44' W 095°03'0 0.0
2017-Oct-29 07:30N 29°44' W 095°03'0 0.0
2017-Oct-29 06:54N 29°44' W 095°03'0 0.0
2017-Oct-29 06:21N 29°44' W 095°03'0 0.0
2017-Oct-29 05:39N 29°44' W 095°03'0 0.0
2017-Oct-29 05:24N 29°44' W 095°03'0 0.0
2017-Oct-29 03:36N 29°44' W 095°03'3 0.1
2017-Oct-28 03:17N 29°46' W 095°06'0 0.0
2017-Oct-27 10:03N 29°46' W 095°05'1 7.4
2017-Oct-27 09:54N 29°45' W 095°06'  

Dump ship's entire track history